CDT,Max TemperatureF,Mean TemperatureF,Min TemperatureF,Max Dew PointF,MeanDew PointF,Min DewpointF,Max Humidity, Mean Humidity, Min Humidity, Max Sea Level PressureIn, Mean Sea Level PressureIn, Min Sea Level PressureIn, Max VisibilityMiles, Mean VisibilityMiles, Min VisibilityMiles, Max Wind SpeedMPH, Mean Wind SpeedMPH, Max Gust SpeedMPH,PrecipitationIn, CloudCover, Events, WindDirDegrees
2011-10-1,66,52,39,41,37,30,86,60,26,30.32,30.26,30.15,10,10,10,12,7,,0.00,0,,10
2011-10-2,70,52,35,46,37,32,100,77,25,30.32,30.27,30.18,10,6,0,6,1,,0.00,1,Fog,304
2011-10-3,77,56,37,49,39,29,100,79,18,30.27,30.22,30.18,10,5,0,7,1,,0.00,3,Fog,258
2011-10-4,81,61,42,50,43,38,100,78,22,30.30,30.24,30.18,10,5,0,5,0,,0.00,3,Fog,110
2011-10-5,82,64,46,48,45,40,100,74,23,30.27,30.21,30.13,10,5,0,12,2,,0.00,1,Fog,123
2011-10-6,84,68,51,54,50,48,93,60,31,30.22,30.17,30.12,10,9,5,16,7,22,0.00,0,,114
2011-10-7,84,69,54,56,52,49,87,60,29,30.27,30.21,30.17,10,10,8,21,9,25,0.00,0,,119
2011-10-8,82,68,54,57,52,49,86,60,33,30.30,30.24,30.19,10,10,8,14,8,22,0.00,0,,127
2011-10-9,82,68,55,55,50,45,90,63,29,30.30,30.23,30.14,10,10,8,14,7,17,0.00,0,,109
2011-10-10,80,65,52,54,51,46,86,63,40,30.16,30.08,30.00,10,10,9,10,6,,0.00,0,,114
2011-10-11,81,68,55,58,55,52,94,77,43,30.01,29.96,29.84,10,6,0,12,3,,0.00,2,Fog,100
2011-10-12,70,66,61,63,60,56,100,87,71,29.84,29.75,29.64,10,9,2,9,3,,0.23,7,Rain,115
2011-10-13,73,64,55,59,53,41,94,75,33,29.72,29.63,29.60,10,10,8,21,8,30,0.01,6,Rain,284
2011-10-14,70,61,46,42,36,31,62,43,24,29.95,29.82,29.72,10,10,10,24,12,34,0.00,0,,283
2011-10-15,71,58,46,41,34,30,71,47,23,30.09,30.01,29.92,10,10,10,17,7,23,0.00,0,,258
2011-10-16,82,64,46,49,41,31,74,49,31,29.99,29.89,29.81,10,10,10,18,7,29,0.00,0,,339
2011-10-17,62,50,39,45,39,29,93,71,31,30.01,29.97,29.92,10,9,4,9,2,,0.25,4,Rain,20
2011-10-18,54,50,46,47,43,35,100,83,61,29.92,29.87,29.84,10,9,5,17,5,,0.28,7,Rain,295
2011-10-19,51,48,45,41,37,31,80,68,50,29.82,29.79,29.76,10,10,9,18,14,26,0.02,8,Rain,324
2011-10-20,55,48,41,34,32,30,73,57,40,30.01,29.88,29.77,10,10,10,21,15,32,0.00,3,,298
2011-10-21,61,49,37,38,32,28,89,62,29,30.17,30.12,30.03,10,9,1,12,7,16,0.00,0,,278
2011-10-22,72,53,35,48,38,34,93,79,31,30.13,30.09,30.00,10,6,1,8,1,,0.00,1,,95
2011-10-23,75,62,50,50,46,41,89,66,30,30.03,29.98,29.92,10,10,9,14,2,20,0.00,3,,185
2011-10-24,73,61,50,50,42,36,86,55,27,30.17,30.10,29.97,10,9,2,8,3,,0.00,0,,230
2011-10-25,82,64,46,56,45,35,86,53,18,30.09,29.94,29.76,10,10,8,26,11,34,0.00,0,,160
2011-10-26,71,60,48,57,48,44,94,80,61,29.99,29.91,29.79,10,6,2,16,10,21,0.12,7,Rain,344
2011-10-27,57,49,41,42,38,32,89,69,40,30.16,30.07,29.98,10,10,7,13,7,17,0.00,4,,1
2011-10-28,59,44,32,40,33,20,100,75,23,30.21,30.16,30.11,10,5,0,7,1,,0.00,2,Fog,290
2011-10-29,62,47,33,33,25,17,79,51,20,30.19,30.12,30.09,10,10,10,9,5,,0.00,0,,248
2011-10-30,62,51,41,35,31,28,65,47,31,30.12,30.05,29.96,10,10,10,23,7,31,0.00,3,Rain,202
2011-10-31,61,47,33,32,28,23,82,52,23,30.15,30.10,30.04,10,10,10,13,5,20,0.00,0,,276